EWG86H LOWG-EDDB
Flight info
| Callsign | EWG86H |
|---|---|
| Flight time | N/A |
| Altitude | 34000 |
| Route | MILGO DCT LNZ DCT PINQI DCT GAVLI T203 ATGUP ATGUP1L |
| Aircraft | A321/M-SDE3FGHIRWY/LB1 |
Departure
| Time | 2026-04-24 15:40 |
|---|---|
| Airport | Graz Airport (LOWG) |
Arrival
| Time | N/A |
|---|---|
| Airport | Berlin Brandenburg Airport (EDDB) |
| Time | Latitude | Longitude | Altitude | Speed | Heading |
|---|---|---|---|---|---|
| 2026-04-24 15:05 | 46.99753 | 15.44333 | 1115 ft | 0 kts | 169° |
| 2026-04-24 15:28 | 46.99785 | 15.44328 | 1111 ft | 4 kts | 183° |
| 2026-04-24 15:29 | 46.99827 | 15.44358 | 1108 ft | 2 kts | 258° |
| 2026-04-24 15:30 | 46.99829 | 15.44366 | 1109 ft | 0 kts | 259° |
| 2026-04-24 15:33 | 46.99827 | 15.44356 | 1108 ft | 4 kts | 259° |
| 2026-04-24 15:34 | 46.99810 | 15.44226 | 1116 ft | 8 kts | 259° |
| 2026-04-24 15:35 | 46.99701 | 15.44201 | 1109 ft | 11 kts | 168° |
| 2026-04-24 15:35 | 46.99521 | 15.44251 | 1109 ft | 14 kts | 169° |
| 2026-04-24 15:35 | 46.99434 | 15.44243 | 1106 ft | 14 kts | 218° |
| 2026-04-24 15:36 | 46.99364 | 15.44137 | 1107 ft | 15 kts | 226° |
| 2026-04-24 15:36 | 46.99212 | 15.43936 | 1111 ft | 11 kts | 188° |
| 2026-04-24 15:36 | 46.99127 | 15.43957 | 1108 ft | 14 kts | 168° |
| 2026-04-24 15:37 | 46.99018 | 15.43989 | 1107 ft | 17 kts | 170° |
| 2026-04-24 15:37 | 46.98889 | 15.44022 | 1103 ft | 20 kts | 169° |
| 2026-04-24 15:37 | 46.98740 | 15.44064 | 1104 ft | 24 kts | 169° |
| 2026-04-24 15:37 | 46.98561 | 15.44114 | 1098 ft | 29 kts | 169° |
| 2026-04-24 15:38 | 46.98363 | 15.44171 | 1100 ft | 29 kts | 168° |
| 2026-04-24 15:38 | 46.98164 | 15.44230 | 1095 ft | 30 kts | 169° |
| 2026-04-24 15:38 | 46.97966 | 15.44289 | 1091 ft | 19 kts | 167° |
| 2026-04-24 15:38 | 46.97864 | 15.44329 | 1092 ft | 13 kts | 153° |
| 2026-04-24 15:39 | 46.97803 | 15.44323 | 1092 ft | 8 kts | 278° |
| 2026-04-24 15:39 | 46.97922 | 15.44283 | 1092 ft | 48 kts | 351° |
| 2026-04-24 15:39 | 46.98506 | 15.44130 | 1100 ft | 120 kts | 349° |
| 2026-04-24 15:39 | 46.99524 | 15.43844 | 1136 ft | 174 kts | 349° |
| 2026-04-24 15:40 | 47.00739 | 15.43511 | 1732 ft | 178 kts | 349° |
| 2026-04-24 15:40 | 47.01951 | 15.43174 | 2514 ft | 178 kts | 349° |
| 2026-04-24 15:40 | 47.03216 | 15.42818 | 2862 ft | 195 kts | 349° |
| 2026-04-24 15:40 | 47.04604 | 15.42426 | 3037 ft | 217 kts | 349° |
| 2026-04-24 15:41 | 47.06166 | 15.41984 | 3211 ft | 242 kts | 349° |
| 2026-04-24 15:41 | 47.07869 | 15.41460 | 3777 ft | 254 kts | 342° |
| 2026-04-24 15:41 | 47.09414 | 15.40171 | 4516 ft | 259 kts | 321° |
| 2026-04-24 15:41 | 47.10729 | 15.38338 | 5378 ft | 260 kts | 313° |
| 2026-04-24 15:42 | 47.11945 | 15.36362 | 6314 ft | 261 kts | 310° |
| 2026-04-24 15:42 | 47.13157 | 15.34357 | 7117 ft | 263 kts | 311° |
| 2026-04-24 15:42 | 47.14398 | 15.32365 | 7943 ft | 265 kts | 313° |
| 2026-04-24 15:42 | 47.15671 | 15.30393 | 8707 ft | 268 kts | 314° |
| 2026-04-24 15:43 | 47.16978 | 15.28425 | 9483 ft | 270 kts | 315° |
| 2026-04-24 15:43 | 47.18312 | 15.26452 | 10207 ft | 274 kts | 315° |
| 2026-04-24 15:43 | 47.19718 | 15.24400 | 10437 ft | 296 kts | 315° |
| 2026-04-24 15:43 | 47.21239 | 15.22190 | 10656 ft | 315 kts | 316° |
| 2026-04-24 15:44 | 47.22803 | 15.19917 | 11205 ft | 322 kts | 316° |
| 2026-04-24 15:44 | 47.24413 | 15.17575 | 11831 ft | 327 kts | 316° |
| 2026-04-24 15:44 | 47.26041 | 15.15200 | 12459 ft | 331 kts | 316° |
| 2026-04-24 15:44 | 47.27687 | 15.12794 | 13067 ft | 335 kts | 316° |
| 2026-04-24 15:45 | 47.29356 | 15.10359 | 13687 ft | 340 kts | 317° |
| 2026-04-24 15:45 | 47.31170 | 15.08113 | 14200 ft | 342 kts | 326° |
| 2026-04-24 15:45 | 47.33132 | 15.06087 | 14766 ft | 346 kts | 326° |
| 2026-04-24 15:45 | 47.35114 | 15.04028 | 15307 ft | 350 kts | 326° |
| 2026-04-24 15:46 | 47.37086 | 15.01971 | 15838 ft | 353 kts | 326° |
| 2026-04-24 15:46 | 47.39098 | 14.99865 | 16412 ft | 356 kts | 326° |
| 2026-04-24 15:46 | 47.41127 | 14.97737 | 16997 ft | 358 kts | 326° |
| 2026-04-24 15:46 | 47.43171 | 14.95593 | 17558 ft | 361 kts | 326° |
| 2026-04-24 15:47 | 47.45227 | 14.93436 | 18095 ft | 364 kts | 326° |
| 2026-04-24 15:47 | 47.47300 | 14.91260 | 18674 ft | 363 kts | 326° |
| 2026-04-24 15:47 | 47.49359 | 14.89095 | 19221 ft | 364 kts | 326° |
| 2026-04-24 15:47 | 47.51432 | 14.86913 | 19656 ft | 368 kts | 326° |
| 2026-04-24 15:48 | 47.53525 | 14.84709 | 20198 ft | 368 kts | 326° |
| 2026-04-24 15:48 | 47.55601 | 14.82521 | 20549 ft | 374 kts | 325° |
| 2026-04-24 15:48 | 47.57728 | 14.80280 | 21050 ft | 375 kts | 325° |
| 2026-04-24 15:48 | 47.59892 | 14.77998 | 21406 ft | 380 kts | 325° |
| 2026-04-24 15:49 | 47.62033 | 14.75734 | 21805 ft | 384 kts | 325° |
| 2026-04-24 15:49 | 47.64221 | 14.73415 | 22198 ft | 388 kts | 325° |
| 2026-04-24 15:49 | 47.66423 | 14.71082 | 22655 ft | 389 kts | 325° |
| 2026-04-24 15:49 | 47.68632 | 14.68743 | 23128 ft | 391 kts | 325° |
| 2026-04-24 15:50 | 47.70852 | 14.66391 | 23505 ft | 395 kts | 324° |
| 2026-04-24 15:50 | 47.73101 | 14.64004 | 23861 ft | 398 kts | 325° |
| 2026-04-24 15:50 | 47.75361 | 14.61603 | 24243 ft | 400 kts | 325° |
| 2026-04-24 15:50 | 47.77635 | 14.59181 | 24536 ft | 404 kts | 325° |
| 2026-04-24 15:51 | 47.79897 | 14.56764 | 24888 ft | 406 kts | 325° |
| 2026-04-24 15:51 | 47.82193 | 14.54306 | 25290 ft | 407 kts | 326° |
| 2026-04-24 15:51 | 47.84496 | 14.51843 | 25659 ft | 409 kts | 325° |
| 2026-04-24 15:51 | 47.86815 | 14.49363 | 26021 ft | 410 kts | 326° |
| 2026-04-24 15:52 | 47.89143 | 14.46873 | 26351 ft | 413 kts | 326° |
| 2026-04-24 15:52 | 47.91487 | 14.44365 | 26705 ft | 415 kts | 326° |
| 2026-04-24 15:52 | 47.93847 | 14.41835 | 27024 ft | 418 kts | 326° |
| 2026-04-24 15:52 | 47.96207 | 14.39301 | 27360 ft | 419 kts | 326° |
| 2026-04-24 15:53 | 47.98565 | 14.36764 | 27701 ft | 422 kts | 326° |
| 2026-04-24 15:53 | 48.00955 | 14.34193 | 28022 ft | 424 kts | 326° |
| 2026-04-24 15:53 | 48.03359 | 14.31600 | 28360 ft | 426 kts | 326° |
| 2026-04-24 15:53 | 48.05766 | 14.28998 | 28709 ft | 428 kts | 326° |
| 2026-04-24 15:54 | 48.08186 | 14.26382 | 29027 ft | 430 kts | 326° |
| 2026-04-24 15:54 | 48.10611 | 14.23758 | 29368 ft | 431 kts | 326° |
| 2026-04-24 15:54 | 48.13049 | 14.21118 | 29672 ft | 433 kts | 326° |
| 2026-04-24 15:54 | 48.15466 | 14.18491 | 29949 ft | 436 kts | 326° |
| 2026-04-24 15:55 | 48.17923 | 14.15816 | 30222 ft | 438 kts | 326° |
| 2026-04-24 15:55 | 48.20415 | 14.13178 | 30456 ft | 439 kts | 329° |
| 2026-04-24 15:55 | 48.23114 | 14.11054 | 30701 ft | 438 kts | 338° |
| 2026-04-24 15:55 | 48.26003 | 14.09598 | 30936 ft | 438 kts | 347° |
| 2026-04-24 15:56 | 48.29002 | 14.08754 | 31169 ft | 439 kts | 351° |
| 2026-04-24 15:56 | 48.32023 | 14.07980 | 31425 ft | 439 kts | 351° |
| 2026-04-24 15:56 | 48.35034 | 14.07194 | 31735 ft | 438 kts | 351° |
| 2026-04-24 15:56 | 48.38036 | 14.06406 | 32059 ft | 436 kts | 351° |
| 2026-04-24 15:57 | 48.40998 | 14.05627 | 32373 ft | 435 kts | 351° |
| 2026-04-24 15:57 | 48.43978 | 14.04842 | 32677 ft | 434 kts | 351° |
| 2026-04-24 15:57 | 48.45950 | 14.04322 | 32890 ft | 434 kts | 350° |
| 2026-04-24 15:57 | 48.49933 | 14.03276 | 33308 ft | 432 kts | 350° |
| 2026-04-24 15:58 | 48.52893 | 14.02499 | 33610 ft | 431 kts | 350° |
| 2026-04-24 15:58 | 48.55849 | 14.01722 | 33912 ft | 430 kts | 350° |
| 2026-04-24 15:58 | 48.58800 | 14.00947 | 34066 ft | 429 kts | 350° |
| 2026-04-24 15:58 | 48.60737 | 14.00438 | 34084 ft | 424 kts | 350° |
| 2026-04-24 15:59 | 48.67462 | 13.98669 | 34104 ft | 421 kts | 350° |
| 2026-04-24 15:59 | 48.72169 | 13.96841 | 34093 ft | 420 kts | 343° |
| 2026-04-24 16:00 | 48.77767 | 13.94324 | 34094 ft | 419 kts | 343° |
| 2026-04-24 16:00 | 48.83366 | 13.91802 | 34097 ft | 419 kts | 343° |
| 2026-04-24 16:01 | 48.88963 | 13.89283 | 34104 ft | 419 kts | 343° |
| 2026-04-24 16:01 | 48.94525 | 13.86772 | 34113 ft | 419 kts | 343° |
| 2026-04-24 16:02 | 49.00123 | 13.84244 | 34116 ft | 419 kts | 343° |
| 2026-04-24 16:02 | 49.05720 | 13.81704 | 34109 ft | 419 kts | 343° |
| 2026-04-24 16:03 | 49.11317 | 13.79157 | 34102 ft | 419 kts | 342° |
| 2026-04-24 16:03 | 49.16883 | 13.76619 | 34107 ft | 419 kts | 342° |
| 2026-04-24 16:04 | 49.22472 | 13.74066 | 34114 ft | 419 kts | 342° |
| 2026-04-24 16:04 | 49.28062 | 13.71501 | 34110 ft | 419 kts | 342° |
| 2026-04-24 16:05 | 49.36398 | 13.67681 | 34108 ft | 418 kts | 342° |
| 2026-04-24 16:06 | 49.44764 | 13.63821 | 34123 ft | 417 kts | 342° |
| 2026-04-24 16:07 | 49.53098 | 13.59973 | 34123 ft | 416 kts | 342° |
| 2026-04-24 16:07 | 49.61417 | 13.56106 | 34117 ft | 416 kts | 341° |
| 2026-04-24 16:08 | 49.69704 | 13.52238 | 34130 ft | 416 kts | 341° |
| 2026-04-24 16:09 | 49.78013 | 13.48371 | 34129 ft | 415 kts | 341° |
| 2026-04-24 16:09 | 49.83544 | 13.45774 | 34130 ft | 415 kts | 341° |
| 2026-04-24 16:11 | 49.97335 | 13.39282 | 34127 ft | 414 kts | 341° |
| 2026-04-24 16:11 | 50.02847 | 13.36689 | 34130 ft | 413 kts | 341° |
| 2026-04-24 16:12 | 50.11103 | 13.32769 | 34135 ft | 413 kts | 341° |
| 2026-04-24 16:13 | 50.19310 | 13.28858 | 34135 ft | 413 kts | 340° |
| 2026-04-24 16:14 | 50.30298 | 13.23610 | 34137 ft | 412 kts | 340° |
| 2026-04-24 16:14 | 50.38492 | 13.19666 | 34142 ft | 412 kts | 340° |
| 2026-04-24 16:15 | 50.46768 | 13.15933 | 34145 ft | 414 kts | 349° |
| 2026-04-24 16:16 | 50.52559 | 13.16235 | 34146 ft | 423 kts | 9° |
| 2026-04-24 16:16 | 50.55385 | 13.17684 | 34145 ft | 429 kts | 20° |
| 2026-04-24 16:17 | 50.68741 | 13.28399 | 34149 ft | 432 kts | 22° |
| 2026-04-24 16:18 | 50.79481 | 13.37083 | 33940 ft | 438 kts | 22° |
| 2026-04-24 16:18 | 50.82220 | 13.39305 | 32902 ft | 445 kts | 22° |
| 2026-04-24 16:19 | 50.87731 | 13.43793 | 31448 ft | 443 kts | 23° |
| 2026-04-24 16:19 | 50.90428 | 13.46000 | 30875 ft | 439 kts | 23° |
| 2026-04-24 16:20 | 50.96049 | 13.49236 | 29696 ft | 422 kts | 6° |
| 2026-04-24 16:20 | 51.01787 | 13.50769 | 28567 ft | 410 kts | 6° |
| 2026-04-24 16:20 | 51.04581 | 13.51514 | 28103 ft | 404 kts | 6° |
| 2026-04-24 16:21 | 51.10000 | 13.52968 | 27197 ft | 390 kts | 6° |
| 2026-04-24 16:21 | 51.12657 | 13.53683 | 26765 ft | 384 kts | 6° |
| 2026-04-24 16:21 | 51.15277 | 13.54392 | 26344 ft | 378 kts | 6° |